Medina, Saudi Arabia
Current Conditions -  °F | °C
As of 5:00 PM on Friday 19 Dec 2014 (Local Time) from OEMA Reporting Station
Clear Clear  
Wind Chill: 82°   Ceiling: Unl
Heat Index: 82°   Visibility: 6mi
Dew Point: 39°   Wind: 0mph
Humidity: 21%   Direction: NA
Pressure: 30.06"   Gusts: NA
Location:  24.46°N, 39.62°E
Report Text: OEMA 191400Z 00000KT CAVOK 28/04 Q1018 NOSIG
Loading
Personal Weather Stations






























Interactive Weather Map New forecast layout! Learn more

10-Day Weather Forecast

Advertisements
Track Severe Weather on mobile